Time;durP1;ratioP1;P1;durP2;ratioP2;P2;SDS_P1;SDS_P2;PMS_P1;PMS_P2;Temp;Humidity;BMP_temperature;BMP_pressure;BME280_temperature;BME280_humidity;BME280_pressure;Samples;Min_cycle;Max_cycle;Signal;HPM_P1;HPM_P2
2022/02/09 00:02:24;;;;;;;;;;;;;;;-0.55;100.00;98878.58;1696126;82;20137;-69
2022/02/09 00:07:14;;;;;;;;;;;;;;;-0.56;100.00;98873.01;1613538;87;21181;-68
2022/02/09 00:09:40;;;;;;;;;;;;;;;-0.55;100.00;98878.58;1607366;88;20445;-68
2022/02/09 00:12:16;;;;;;;;;;;;;;;-0.54;100.00;98873.12;1589632;88;20192;-68
2022/02/09 00:20:17;;;;;;;;;;;;;;;-0.55;100.00;98877.26;1612425;88;21143;-66
2022/02/09 00:36:03;;;;;;;;;;;;;;;-0.53;100.00;98864.19;1543811;91;20112;-68
2022/02/09 00:43:45;;;;;;;;;;;;;;;-0.57;100.00;98852.41;1607182;85;20477;-68
2022/02/09 01:39:01;;;;;;;;;;;;;;;-0.75;100.00;98852.97;1700915;82;20104;-67
2022/02/09 01:41:24;;;;;;;;;;;;;;;-0.72;100.00;98849.92;1692347;82;21172;-68
2022/02/09 01:56:51;;;;;;;;;;;;;;;-0.63;100.00;98847.94;1706991;82;20104;-67
2022/02/09 01:59:20;;;;;;;;;;;;;;;-0.65;100.00;98850.77;1709675;82;20175;-68
2022/02/09 02:01:47;;;;;;;;;;;;;;;-0.62;100.00;98857.46;1695184;82;20087;-67
2022/02/09 02:04:13;;;;;;;;;;;;;;;-0.63;100.00;98845.30;1702166;82;20086;-68
2022/02/09 02:06:47;;;;;;;;;;;;;;;-0.59;100.00;98849.15;1700385;82;21143;-67
2022/02/09 02:09:14;;;;;;;;;;;;;;;-0.58;100.00;98847.34;1699408;82;20438;-67
2022/02/09 02:11:47;;;;;;;;;;;;;;;-0.55;100.00;98850.38;1702959;82;20104;-67
2022/02/09 02:16:45;;;;;;;;;;;;;;;-0.45;100.00;98852.64;1698999;83;20132;-68
2022/02/09 02:19:33;;;;;;;;;;;;;;;-0.41;100.00;98859.15;1702396;82;21178;-67
2022/02/09 02:25:00;;;;;;;;;;;;;;;-0.28;100.00;98866.27;1703026;82;20098;-68
2022/02/09 02:27:28;;;;;;;;;;;;;;;-0.24;100.00;98868.31;1694758;82;20093;-67
2022/02/09 02:32:40;;;;;;;;;;;;;;;-0.15;100.00;98871.55;1696102;82;21156;-67
2022/02/09 02:35:28;;;;;;;;;;;;;;;-0.12;100.00;98871.17;1681404;84;20508;-67
2022/02/09 03:08:19;;;;;;;;;;;;;;;;;;;;;
2022/02/09 03:12:43;;;;;;;;;;;;;;;0.23;100.00;98894.73;1640346;86;21193;-64
2022/02/09 03:17:42;;;;;;;;;;;;;;;0.30;100.00;98898.70;1643677;86;20286;-66
2022/02/09 03:20:30;;;;;;;;;;;;;;;0.31;100.00;98902.96;1629788;86;20147;-68
2022/02/09 03:23:14;;;;;;;;;;;;;;;0.34;100.00;98902.06;1642700;85;20457;-68
2022/02/09 03:44:34;;;;;;;;;;;;;;;0.47;100.00;98915.77;1658188;85;20464;-68
2022/02/09 03:50:16;;;;;;;;;;;;;;;0.51;100.00;98922.23;1635556;87;20199;-67
2022/02/09 03:55:13;;;;;;;;;;;;;;;0.55;100.00;98920.02;1689097;83;20252;-67
2022/02/09 03:57:29;;;;;;;;;;;;;;;0.55;100.00;98921.34;1680105;85;20163;-67
2022/02/09 03:59:55;;;;;;;;;;;;;;;0.56;100.00;98926.40;1683794;85;20471;-65
2022/02/09 04:02:23;;;;;;;;;;;;;;;0.56;100.00;98917.16;1698011;83;20505;-66
2022/02/09 04:04:55;;;;;;;;;;;;;;;0.61;100.00;98923.15;1697006;83;21148;-68
2022/02/09 04:07:17;;;;;;;;;;;;;;;0.62;100.00;98915.55;1695159;83;20460;-67
2022/02/09 04:09:48;;;;;;;;;;;;;;;0.62;100.00;98916.35;1690272;84;20126;-66
2022/02/09 04:12:28;;;;;;;;;;;;;;;0.64;100.00;98920.13;1690107;84;20157;-66
2022/02/09 04:44:24;;;;;;;;;;;;;;;0.80;100.00;98970.38;1686216;83;21175;-66
2022/02/09 04:49:41;;;;;;;;;;;;;;;0.83;100.00;98979.22;1694923;84;20230;-67
2022/02/09 04:57:33;;;;;;;;;;;;;;;0.84;100.00;98989.59;1691207;83;21819;-68
2022/02/09 05:25:01;;;;;;;;;;;;;;;1.06;100.00;99030.34;1697156;84;21199;-67
2022/02/09 05:27:21;;;;;;;;;;;;;;;1.10;100.00;99039.98;1691054;82;20104;-67
2022/02/09 05:29:43;;;;;;;;;;;;;;;1.15;100.00;99047.63;1685139;82;20098;-65
2022/02/09 05:32:09;;;;;;;;;;;;;;;1.23;100.00;99050.05;1666598;85;20126;-65
2022/02/09 05:34:36;;;;;;;;;;;;;;;1.28;100.00;99058.17;1698779;82;20149;-66
2022/02/09 05:37:04;;;;;;;;;;;;;;;1.32;100.00;99065.17;1694009;82;21144;-65
2022/02/09 05:39:31;;;;;;;;;;;;;;;1.31;100.00;99060.91;1698220;84;20181;-65
2022/02/09 05:41:57;;;;;;;;;;;;;;;1.27;100.00;99068.45;1694387;82;20087;-64
2022/02/09 05:44:24;;;;;;;;;;;;;;;1.24;100.00;99074.13;1700758;83;20119;-64
2022/02/09 05:47:44;;;;;;;;;;;;;;;1.26;100.00;99081.87;1698096;83;20197;-63
2022/02/09 05:52:29;;;;;;;;;;;;;;;1.18;100.00;99086.05;1674373;85;20159;-65
2022/02/09 05:59:50;;;;;;;;;;;;;;;1.10;100.00;99096.81;1668055;85;20140;-67
2022/02/09 06:02:19;;;;;;;;;;;;;;;1.06;100.00;99103.83;1669253;83;21150;-63
2022/02/09 06:04:46;;;;;;;;;;;;;;;1.04;100.00;99108.50;1673811;85;20411;-66
2022/02/09 06:07:19;;;;;;;;;;;;;;;1.04;100.00;99111.66;1661313;84;20174;-65
2022/02/09 06:09:45;;;;;;;;;;;;;;;1.04;100.00;99112.47;1656456;85;20464;-66
2022/02/09 06:12:29;;;;;;;;;;;;;;;1.04;100.00;99120.39;1661189;85;20151;-61
2022/02/09 06:20:08;;;;;;;;;;;;;;;1.13;100.00;99130.77;1602065;88;20479;-63
2022/02/09 06:22:34;;;;;;;;;;;;;;;1.16;100.00;99138.31;1641425;85;20231;-68
2022/02/09 06:25:03;;;;;;;;;;;;;;;1.14;100.00;99138.50;1623303;87;20181;-66
2022/02/09 06:27:29;;;;;;;;;;;;;;;1.12;100.00;99140.53;1688562;83;21221;-67
2022/02/09 06:30:02;;;;;;;;;;;;;;;1.16;100.00;99142.27;1685351;84;20105;-65
2022/02/09 06:32:35;;;;;;;;;;;;;;;1.16;100.00;99146.23;1688796;84;20125;-67
2022/02/09 06:35:04;;;;;;;;;;;;;;;1.19;100.00;99151.92;1689013;84;20132;-67
2022/02/09 06:37:42;;;;;;;;;;;;;;;1.23;100.00;99156.31;1688314;84;20105;-68
2022/02/09 06:40:07;;;;;;;;;;;;;;;1.22;100.00;99155.98;1691555;84;21174;-66
2022/02/09 06:42:35;;;;;;;;;;;;;;;1.24;100.00;99152.64;1693023;83;20149;-66
2022/02/09 06:45:20;;;;;;;;;;;;;;;1.32;100.00;99166.97;1689125;84;20081;-68
2022/02/09 06:47:41;;;;;;;;;;;;;;;1.38;100.00;99166.17;1690656;84;21338;-67
2022/02/09 06:50:19;;;;;;;;;;;;;;;1.49;100.00;99164.73;1687705;84;20411;-67
2022/02/09 06:52:43;;;;;;;;;;;;;;;1.59;100.00;99165.64;1693736;83;21156;-67
2022/02/09 07:00:22;;;;;;;;;;;;;;;1.67;100.00;99182.66;1695702;84;20098;-67
2022/02/09 07:02:50;;;;;;;;;;;;;;;1.67;100.00;99183.98;1692245;84;20102;-66
2022/02/09 07:05:17;;;;;;;;;;;;;;;1.64;100.00;99186.53;1691396;83;21150;-66
2022/02/09 07:07:45;;;;;;;;;;;;;;;1.66;100.00;99195.05;1686380;84;20813;-69
2022/02/09 07:10:13;;;;;;;;;;;;;;;1.68;100.00;99198.30;1687647;82;20117;-67
2022/02/09 07:12:41;;;;;;;;;;;;;;;1.71;100.00;99194.44;1694074;84;20213;-64
2022/02/09 07:15:12;;;;;;;;;;;;;;;1.70;100.00;99200.76;1711199;84;20126;-69
2022/02/09 07:17:40;;;;;;;;;;;;;;;1.74;100.00;99201.98;1710951;84;21145;-71
2022/02/09 07:20:21;;;;;;;;;;;;;;;1.79;100.00;99200.02;1711204;84;20445;-67
2022/02/09 07:22:49;;;;;;;;;;;;;;;1.76;100.00;99213.67;1711098;84;20150;-66
2022/02/09 07:25:18;;;;;;;;;;;;;;;1.74;100.00;99215.22;1711027;84;20094;-65
2022/02/09 07:27:51;;;;;;;;;;;;;;;1.69;100.00;99213.18;1662629;84;20449;-68
2022/02/09 07:30:23;;;;;;;;;;;;;;;1.71;100.00;99215.12;1616753;87;20165;-69
2022/02/09 07:33:00;;;;;;;;;;;;;;;1.73;100.00;99218.06;1643764;87;20175;-66
2022/02/09 07:35:27;;;;;;;;;;;;;;;1.77;100.00;99221.93;1644090;87;20418;-66
2022/02/09 07:37:53;;;;;;;;;;;;;;;1.84;100.00;99228.84;1643811;87;20183;-67
2022/02/09 07:40:23;;;;;;;;;;;;;;;1.82;100.00;99234.04;1644094;87;20485;-67
2022/02/09 07:42:54;;;;;;;;;;;;;;;1.77;100.00;99239.94;1643964;87;21120;-65
2022/02/09 07:50:47;;;;;;;;;;;;;;;1.57;100.00;99241.75;1617089;87;20158;-66
2022/02/09 07:53:25;;;;;;;;;;;;;;;1.57;100.00;99237.78;1617523;88;20244;-66
2022/02/09 07:55:50;;;;;;;;;;;;;;;1.55;100.00;99248.58;1617656;88;21229;-66
2022/02/09 07:58:17;;;;;;;;;;;;;;;1.58;100.00;99247.36;1617406;88;20217;-66
2022/02/09 08:00:45;;;;;;;;;;;;;;;1.59;100.00;99250.30;1609616;88;20125;-66
2022/02/09 08:03:13;;;;;;;;;;;;;;;1.63;100.00;99248.89;1556444;90;20600;-67
2022/02/09 08:05:40;;;;;;;;;;;;;;;1.64;100.00;99252.67;1557284;92;20245;-67
2022/02/09 08:08:06;;;;;;;;;;;;;;;1.67;100.00;99259.38;1619727;86;21101;-66
2022/02/09 08:10:44;;;;;;;;;;;;;;;1.73;100.00;99255.91;1618217;87;20154;-67
2022/02/09 08:24:13;;;;;;;;;;;;;;;2.06;100.00;99269.66;1593963;90;20164;-68
2022/02/09 08:29:25;;;;;;;;;;;;;;;2.15;100.00;99281.64;1618985;88;20165;-68
2022/02/09 08:34:34;;;;;;;;;;;;;;;2.27;100.00;99294.56;1618498;88;22041;-67
2022/02/09 08:37:05;;;;;;;;;;;;;;;2.35;100.00;99270.53;1618173;88;20154;-67
2022/02/09 08:39:32;;;;;;;;;;;;;;;2.39;100.00;99298.73;1618318;88;20240;-66
2022/02/09 08:41:58;;;;;;;;;;;;;;;2.42;100.00;99302.80;1618647;88;20182;-67
2022/02/09 08:44:25;;;;;;;;;;;;;;;2.46;100.00;99293.42;1618677;88;20242;-66
2022/02/09 08:46:51;;;;;;;;;;;;;;;2.56;100.00;99293.80;1618440;88;21160;-67
2022/02/09 08:49:18;;;;;;;;;;;;;;;2.64;100.00;99301.52;1618346;88;20125;-67
2022/02/09 08:51:44;;;;;;;;;;;;;;;2.68;100.00;99305.39;1618545;88;20142;-68
2022/02/09 08:54:11;;;;;;;;;;;;;;;2.74;100.00;99307.22;1618528;88;20193;-67
2022/02/09 08:56:38;;;;;;;;;;;;;;;2.83;100.00;99308.30;1618631;88;20125;-67
2022/02/09 08:59:07;;;;;;;;;;;;;;;2.87;100.00;99310.33;1640457;86;21142;-66
2022/02/09 09:01:40;;;;;;;;;;;;;;;2.92;100.00;99305.21;1646497;87;20162;-67
2022/02/09 09:04:15;;;;;;;;;;;;;;;2.95;100.00;99316.72;1624276;88;20162;-67
2022/02/09 09:06:39;;;;;;;;;;;;;;;2.87;100.00;99317.48;1654346;85;20087;-68
2022/02/09 09:09:18;;;;;;;;;;;;;;;3.01;100.00;99313.73;1670178;84;20185;-65
2022/02/09 09:31:25;;;;;;;;;;;;;;;3.28;100.00;99335.64;1651038;87;20181;-68
2022/02/09 10:33:56;;;;;;;;;;;;;;;4.69;100.00;99324.27;1649030;87;21150;-67
2022/02/09 10:36:24;;;;;;;;;;;;;;;4.76;100.00;99339.64;1653020;86;20171;-66
2022/02/09 10:39:03;;;;;;;;;;;;;;;5.21;100.00;99345.16;1650892;87;20266;-69
2022/02/09 10:41:36;;;;;;;;;;;;;;;5.36;100.00;99346.41;1652054;86;20472;-64
2022/02/09 10:44:08;;;;;;;;;;;;;;;5.02;100.00;99349.18;1654891;86;20151;-65
2022/02/09 10:46:51;;;;;;;;;;;;;;;4.55;100.00;99353.34;1623014;88;21156;-64
2022/02/09 10:49:21;;;;;;;;;;;;;;;4.54;100.00;99361.84;1622801;88;20105;-66
2022/02/09 10:52:06;;;;;;;;;;;;;;;4.56;100.00;99362.93;1649425;87;20437;-67
2022/02/09 10:54:22;;;;;;;;;;;;;;;4.56;100.00;99370.91;1650738;86;20808;-66
2022/02/09 10:56:57;;;;;;;;;;;;;;;4.55;100.00;99373.28;1650123;86;20273;-66
2022/02/09 10:59:25;;;;;;;;;;;;;;;5.25;100.00;99374.30;1647611;86;21231;-65
2022/02/09 11:01:54;;;;;;;;;;;;;;;5.30;100.00;99363.78;1651333;86;20252;-64
2022/02/09 11:04:21;;;;;;;;;;;;;;;5.34;100.00;99366.27;1617005;88;20197;-65
2022/02/09 11:06:48;;;;;;;;;;;;;;;5.31;100.00;99377.38;1649231;87;20179;-65
2022/02/09 11:09:17;;;;;;;;;;;;;;;5.08;100.00;99380.20;1636444;85;20236;-67
2022/02/09 11:11:43;;;;;;;;;;;;;;;5.32;100.00;99375.03;1715076;83;21167;-66
2022/02/09 11:14:15;;;;;;;;;;;;;;;5.16;100.00;99379.89;1703799;83;20097;-64
2022/02/09 11:16:43;;;;;;;;;;;;;;;4.81;100.00;99384.19;1684377;84;20509;-67
2022/02/09 11:19:12;;;;;;;;;;;;;;;4.66;100.00;99390.66;1684494;84;20487;-64
2022/02/09 11:21:40;;;;;;;;;;;;;;;4.66;100.00;99393.84;1682260;84;20156;-66
2022/02/09 11:24:15;;;;;;;;;;;;;;;4.82;100.00;99390.59;1682401;85;21945;-67
2022/02/09 11:26:58;;;;;;;;;;;;;;;5.12;100.00;99387.20;1678718;84;20175;-68
2022/02/09 11:32:38;;;;;;;;;;;;;;;5.34;100.00;99407.53;1594088;89;20191;-64
2022/02/09 11:40:57;;;;;;;;;;;;;;;4.86;100.00;99422.90;1547219;91;20199;-63
2022/02/09 11:46:26;;;;;;;;;;;;;;;4.38;100.00;99413.69;1577657;89;20195;-65
2022/02/09 12:01:00;;;;;;;;;;;;;;;4.28;100.00;99408.05;1572628;91;20468;-67
2022/02/09 12:09:42;;;;;;;;;;;;;;;4.68;100.00;99421.03;1578906;89;20170;-67
2022/02/09 12:12:19;;;;;;;;;;;;;;;4.75;100.00;99424.94;1582124;90;20164;-67
2022/02/09 12:15:44;;;;;;;;;;;;;;;4.79;100.00;99426.94;1617630;86;20502;-63
2022/02/09 12:17:36;;;;;;;;;;;;;;;4.55;100.00;99413.16;1679205;84;20155;-66
2022/02/09 12:20:31;;;;;;;;;;;;;;;4.44;100.00;99418.15;1687611;84;23316;-67
2022/02/09 12:22:49;;;;;;;;;;;;;;;4.68;100.00;99429.81;1680131;84;20170;-66
2022/02/09 12:25:12;;;;;;;;;;;;;;;4.75;100.00;99435.05;1703212;84;20515;-67
2022/02/09 12:27:44;;;;;;;;;;;;;;;4.57;100.00;99418.55;1703634;82;20142;-69
2022/02/09 12:30:12;;;;;;;;;;;;;;;4.49;100.00;99432.92;1703063;84;20102;-65
2022/02/09 12:32:42;;;;;;;;;;;;;;;4.86;100.00;99431.69;1699604;84;21132;-65
2022/02/09 12:35:11;;;;;;;;;;;;;;;4.91;100.00;99427.84;1666118;86;20102;-66
2022/02/09 12:37:42;;;;;;;;;;;;;;;4.84;100.00;99435.59;1688441;84;20103;-67
2022/02/09 12:40:11;;;;;;;;;;;;;;;4.99;100.00;99425.94;1692400;83;20119;-69
2022/02/09 12:42:47;;;;;;;;;;;;;;;5.17;100.00;99445.92;1685262;84;20155;-66
2022/02/09 12:45:19;;;;;;;;;;;;;;;4.83;100.00;99445.42;1688329;84;21821;-66
2022/02/09 12:47:53;;;;;;;;;;;;;;;4.71;100.00;99439.20;1689419;83;20141;-67
2022/02/09 12:50:25;;;;;;;;;;;;;;;5.04;100.00;99444.19;1684204;84;20171;-63
2022/02/09 12:52:53;;;;;;;;;;;;;;;5.01;100.00;99450.48;1680299;84;20615;-67
2022/02/09 12:55:22;;;;;;;;;;;;;;;4.84;100.00;99445.71;1685615;84;20205;-63
2022/02/09 12:57:54;;;;;;;;;;;;;;;4.88;100.00;99453.56;1679516;84;21132;-63
2022/02/09 13:00:42;;;;;;;;;;;;;;;5.04;100.00;99458.01;1675243;84;20153;-67
2022/02/09 13:03:21;;;;;;;;;;;;;;;5.31;100.00;99458.02;1667095;86;20156;-67
2022/02/09 13:06:00;;;;;;;;;;;;;;;5.38;100.00;99438.80;1667060;86;20186;-66
2022/02/09 13:08:28;;;;;;;;;;;;;;;5.52;100.00;99469.28;1667424;85;20151;-69
2022/02/09 13:11:08;;;;;;;;;;;;;;;5.58;100.00;99462.55;1670087;84;21124;-65
2022/02/09 13:13:35;;;;;;;;;;;;;;;5.67;100.00;99463.57;1701822;84;20119;-66
2022/02/09 13:16:21;;;;;;;;;;;;;;;5.56;100.00;99453.97;1702280;84;20218;-67
2022/02/09 13:53:35;;;;;;;;;;;;;;;4.68;100.00;99500.80;1629839;87;21127;-68
2022/02/09 14:55:05;;;;;;;;;;;;;;;2.56;100.00;99562.75;1589622;89;20219;-70
2022/02/09 14:57:30;;;;;;;;;;;;;;;2.52;100.00;99566.32;1589786;89;20205;-68
2022/02/09 15:00:07;;;;;;;;;;;;;;;2.48;100.00;99569.05;1593188;89;21159;-67
2022/02/09 15:07:54;;;;;;;;;;;;;;;2.33;100.00;99573.20;1562552;91;20706;-68
2022/02/09 15:15:37;;;;;;;;;;;;;;;2.27;100.00;99592.52;1551411;91;20159;-67
2022/02/09 15:21:15;;;;;;;;;;;;;;;2.26;100.00;99591.41;1632771;86;20207;-69
2022/02/09 15:23:22;;;;;;;;;;;;;;;2.25;100.00;99594.55;1635358;86;20211;-68
2022/02/09 15:25:48;;;;;;;;;;;;;;;2.26;100.00;99593.55;1631622;86;21934;-67
2022/02/09 15:28:15;;;;;;;;;;;;;;;2.27;100.00;99596.49;1628610;87;20202;-68
2022/02/09 15:30:54;;;;;;;;;;;;;;;2.30;100.00;99596.12;1630259;87;20160;-66
2022/02/09 15:33:13;;;;;;;;;;;;;;;2.31;100.00;99594.28;1628780;86;20165;-72
2022/02/09 15:35:42;;;;;;;;;;;;;;;2.29;100.00;99595.79;1626509;87;20176;-69
2022/02/09 15:38:22;;;;;;;;;;;;;;;2.29;100.00;99601.60;1655105;82;21165;-68
2022/02/09 15:43:26;;;;;;;;;;;;;;;2.27;100.00;99617.68;1717131;82;20440;-67
2022/02/09 16:23:42;;;;;;;;;;;;;;;2.24;100.00;99657.00;1720008;82;20339;-68
2022/02/09 16:33:11;;;;;;;;;;;;;;;2.20;100.00;99664.50;1713697;82;20470;-67
2022/02/09 16:45:11;;;;;;;;;;;;;;;2.09;100.00;99659.27;1705547;84;20107;-71
2022/02/09 16:48:14;;;;;;;;;;;;;;;2.06;100.00;99664.15;1705092;84;20138;-69
2022/02/09 16:50:16;;;;;;;;;;;;;;;2.03;100.00;99661.88;1685877;82;20585;-70
2022/02/09 16:52:48;;;;;;;;;;;;;;;2.01;100.00;99661.24;1683821;84;21997;-67
2022/02/09 17:19:45;;;;;;;;;;;;;;;1.52;100.00;99653.73;1608306;88;20150;-67
2022/02/09 17:22:18;;;;;;;;;;;;;;;1.43;100.00;99653.04;1607669;88;20987;-68
2022/02/09 17:24:46;;;;;;;;;;;;;;;1.34;100.00;99644.92;1607237;88;21182;-69
2022/02/09 17:27:18;;;;;;;;;;;;;;;1.23;100.00;99642.30;1605473;88;20209;-66
2022/02/09 17:32:48;;;;;;;;;;;;;;;1.01;100.00;99640.18;1595864;89;20623;-67
2022/02/09 17:35:09;;;;;;;;;;;;;;;0.90;100.00;99638.03;1590533;90;20152;-68
2022/02/09 17:37:48;;;;;;;;;;;;;;;0.80;100.00;99634.38;1677237;83;21248;-69
2022/02/09 17:53:48;;;;;;;;;;;;;;;0.39;100.00;99644.70;1712562;84;20483;-67
2022/02/09 17:56:17;;;;;;;;;;;;;;;0.34;100.00;99640.47;1712049;83;20074;-67
2022/02/09 17:58:49;;;;;;;;;;;;;;;0.31;100.00;99643.49;1711859;84;20180;-69
2022/02/09 18:01:16;;;;;;;;;;;;;;;0.33;100.00;99634.38;1712188;84;20126;-69
2022/02/09 18:03:43;;;;;;;;;;;;;;;0.33;100.00;99626.97;1712491;84;21147;-69
2022/02/09 18:06:23;;;;;;;;;;;;;;;0.26;100.00;99611.05;1712817;84;20113;-69
2022/02/09 18:09:29;;;;;;;;;;;;;;;0.24;100.00;99610.91;1712153;84;20111;-69
2022/02/09 18:11:42;;;;;;;;;;;;;;;0.24;100.00;99612.23;1663700;84;20467;-69
2022/02/09 18:28:02;;;;;;;;;;;;;;;-0.23;100.00;99623.52;1702131;84;21021;-68
2022/02/09 18:30:24;;;;;;;;;;;;;;;-0.28;100.00;99621.41;1697041;82;21242;-66
2022/02/09 18:56:57;;;;;;;;;;;;;;;0.15;100.00;99640.57;1532794;91;20189;-67
2022/02/09 18:56:58;;;;;;;;;;;;;;;0.17;100.00;99630.63;1554187;92;21188;-65
2022/02/09 18:59:29;;;;;;;;;;;;;;;0.13;100.00;99631.50;1558065;89;20243;-67
2022/02/09 19:07:17;;;;;;;;;;;;;;;0.02;100.00;99637.74;1614285;89;20480;-68
2022/02/09 19:17:42;;;;;;;;;;;;;;;0.15;100.00;99642.70;1610028;88;20656;-67
2022/02/09 19:49:19;;;;;;;;;;;;;;;0.01;100.00;99618.45;1674732;85;21762;-67
2022/02/09 19:52:02;;;;;;;;;;;;;;;0.00;100.00;99624.75;1659675;85;20225;-66
2022/02/09 19:56:49;;;;;;;;;;;;;;;-0.06;100.00;99612.27;1658624;85;20445;-67
2022/02/09 19:59:17;;;;;;;;;;;;;;;-0.07;100.00;99606.69;1663841;85;20166;-67
2022/02/09 20:01:43;;;;;;;;;;;;;;;-0.07;100.00;99601.41;1664762;85;21183;-68
2022/02/09 20:04:10;;;;;;;;;;;;;;;-0.06;100.00;99609.12;1663891;85;20437;-68
2022/02/09 20:06:38;;;;;;;;;;;;;;;-0.06;100.00;99607.81;1671093;85;20181;-68
2022/02/09 20:09:08;;;;;;;;;;;;;;;-0.06;100.00;99601.21;1666778;85;20430;-66
2022/02/09 20:11:38;;;;;;;;;;;;;;;-0.03;100.00;99602.16;1656523;85;20191;-66
2022/02/09 20:14:04;;;;;;;;;;;;;;;0.02;100.00;99608.20;1677601;82;22055;-68
2022/02/09 20:16:30;;;;;;;;;;;;;;;0.06;100.00;99608.67;1719111;82;20119;-69
2022/02/09 20:18:58;;;;;;;;;;;;;;;0.07;100.00;99607.66;1715903;82;20202;-67
2022/02/09 20:21:27;;;;;;;;;;;;;;;0.12;100.00;99602.16;1714141;82;20634;-68
2022/02/09 20:23:54;;;;;;;;;;;;;;;0.14;100.00;99608.05;1725327;82;20139;-66
2022/02/09 20:26:22;;;;;;;;;;;;;;;0.14;100.00;99605.92;1714924;82;21096;-67
2022/02/09 20:29:12;;;;;;;;;;;;;;;0.14;100.00;99602.77;1718607;82;20106;-68
2022/02/09 20:31:25;;;;;;;;;;;;;;;0.18;100.00;99593.49;1714506;82;20177;-67
2022/02/09 20:33:50;;;;;;;;;;;;;;;0.21;100.00;99597.08;1723302;82;20163;-68
2022/02/09 20:36:18;;;;;;;;;;;;;;;0.26;100.00;99593.88;1713577;82;20145;-65
2022/02/09 20:38:49;;;;;;;;;;;;;;;0.26;100.00;99590.43;1691679;82;21112;-67
2022/02/09 20:41:15;;;;;;;;;;;;;;;0.28;100.00;99598.98;1713915;82;20134;-67
2022/02/09 20:43:55;;;;;;;;;;;;;;;0.26;100.00;99587.28;1713466;82;20170;-68
2022/02/09 20:46:13;;;;;;;;;;;;;;;0.24;100.00;99591.11;1708523;82;20599;-67
2022/02/09 20:48:40;;;;;;;;;;;;;;;0.25;100.00;99590.94;1702120;82;20230;-68
2022/02/09 20:51:07;;;;;;;;;;;;;;;0.28;100.00;99578.67;1706926;82;21142;-66
2022/02/09 20:53:34;;;;;;;;;;;;;;;0.28;100.00;99571.27;1706986;82;20742;-68
2022/02/09 20:56:01;;;;;;;;;;;;;;;0.34;100.00;99575.30;1714963;82;20195;-67
2022/02/09 20:58:34;;;;;;;;;;;;;;;0.36;100.00;99581.19;1707223;82;20133;-68
2022/02/09 21:01:03;;;;;;;;;;;;;;;0.36;100.00;99574.59;1709025;82;20165;-67
2022/02/09 21:07:00;;;;;;;;;;;;;;;0.41;100.00;99577.48;1705167;82;20094;-69
2022/02/09 21:08:54;;;;;;;;;;;;;;;0.43;100.00;99578.63;1684022;83;20447;-67
2022/02/09 21:16:50;;;;;;;;;;;;;;;0.53;100.00;99571.72;1588657;89;21998;-63
